createdAt,value
2022-12-04T00:01:07.542Z,14.63
2022-12-04T00:03:34.675Z,15.52
2022-12-04T00:06:09.757Z,14.55
2022-12-04T00:08:36.967Z,14.38
2022-12-04T00:11:05.344Z,14.10
2022-12-04T00:13:33.084Z,14.07
2022-12-04T00:15:59.826Z,14.18
2022-12-04T00:18:27.295Z,14.00
2022-12-04T00:20:54.003Z,17.63
2022-12-04T00:23:20.705Z,14.45
2022-12-04T00:25:48.732Z,15.50
2022-12-04T00:28:19.240Z,14.45
2022-12-04T00:30:46.348Z,15.10
2022-12-04T00:33:14.073Z,16.90
2022-12-04T00:35:41.041Z,14.20
2022-12-04T00:38:07.883Z,15.90
2022-12-04T00:40:34.667Z,15.27
2022-12-04T00:43:01.491Z,15.60
2022-12-04T00:45:28.337Z,16.27
2022-12-04T00:47:55.073Z,14.38
2022-12-04T00:50:22.516Z,15.25
2022-12-04T00:52:49.255Z,14.07
2022-12-04T00:55:15.986Z,13.75
2022-12-04T00:57:42.687Z,14.30
2022-12-04T01:00:09.753Z,13.18
2022-12-04T01:02:36.521Z,14.07
2022-12-04T01:05:03.939Z,13.70
2022-12-04T01:07:30.682Z,13.27
2022-12-04T01:09:57.780Z,13.80
2022-12-04T01:12:24.721Z,13.93
2022-12-04T01:14:51.488Z,14.48
2022-12-04T01:17:18.664Z,16.65
2022-12-04T01:19:45.399Z,15.60
2022-12-04T01:22:12.127Z,15.20
2022-12-04T01:24:38.835Z,14.95
2022-12-04T01:27:05.636Z,15.80
2022-12-04T01:29:32.301Z,17.98
2022-12-04T01:31:59.407Z,14.88
2022-12-04T01:34:26.218Z,14.60
2022-12-04T01:36:52.991Z,14.27
2022-12-04T01:39:19.841Z,14.02
2022-12-04T01:41:46.552Z,14.25
2022-12-04T01:44:20.403Z,12.57
2022-12-04T01:46:51.438Z,13.50
2022-12-04T01:49:26.021Z,13.32
2022-12-04T01:52:15.846Z,14.55
2022-12-04T01:54:46.143Z,14.52
2022-12-04T01:57:22.070Z,14.82
2022-12-04T02:00:02.064Z,14.00
2022-12-04T02:02:35.469Z,14.75
2022-12-04T02:05:04.387Z,15.18
2022-12-04T02:07:31.714Z,15.32
2022-12-04T02:10:03.738Z,18.92
2022-12-04T02:12:51.229Z,13.70
2022-12-04T02:15:21.956Z,15.05
2022-12-04T02:18:03.893Z,13.85
2022-12-04T02:20:41.936Z,15.15
2022-12-04T02:23:53.342Z,13.23
2022-12-04T02:26:29.995Z,14.52
2022-12-04T02:29:14.623Z,13.70
2022-12-04T02:31:48.986Z,15.00
2022-12-04T02:34:25.467Z,14.30
2022-12-04T02:37:22.027Z,13.38
2022-12-04T02:40:04.970Z,13.90
2022-12-04T02:42:42.131Z,13.88
2022-12-04T02:45:14.485Z,12.43
2022-12-04T02:47:43.121Z,13.63
2022-12-04T02:50:13.620Z,13.38
2022-12-04T02:52:46.289Z,13.05
2022-12-04T02:55:20.215Z,14.40
2022-12-04T02:57:51.293Z,13.80
2022-12-04T03:00:19.098Z,13.13
2022-12-04T03:02:56.523Z,13.77
2022-12-04T03:05:35.233Z,12.70
2022-12-04T03:08:08.185Z,13.88
2022-12-04T03:10:44.194Z,13.77
2022-12-04T03:13:18.506Z,13.63
2022-12-04T03:15:54.499Z,14.13
2022-12-04T03:18:32.278Z,14.30
2022-12-04T03:21:10.372Z,14.20
2022-12-04T03:23:44.909Z,13.32
2022-12-04T03:26:38.510Z,14.00
2022-12-04T03:29:11.767Z,13.50
2022-12-04T03:31:44.179Z,13.77
2022-12-04T03:34:13.310Z,14.05
2022-12-04T03:36:50.026Z,13.48
2022-12-04T03:39:26.545Z,14.05
2022-12-04T03:42:01.698Z,13.30
2022-12-04T03:45:00.391Z,13.90
2022-12-04T03:47:36.785Z,13.40
2022-12-04T03:50:19.151Z,13.95
2022-12-04T03:52:52.182Z,13.68
2022-12-04T03:55:37.663Z,13.55
2022-12-04T03:58:09.370Z,13.88
2022-12-04T04:00:41.539Z,12.77
2022-12-04T04:03:14.234Z,13.85
2022-12-04T04:05:44.981Z,14.57
2022-12-04T04:08:30.940Z,13.95
2022-12-04T04:11:18.891Z,13.18
2022-12-04T04:14:17.318Z,13.43
2022-12-04T04:17:08.449Z,13.18
2022-12-04T04:19:56.013Z,14.25
2022-12-04T04:22:43.901Z,14.43
2022-12-04T04:25:14.699Z,14.20
2022-12-04T04:27:41.644Z,13.55
2022-12-04T04:30:09.630Z,13.27
2022-12-04T04:32:57.429Z,13.65
2022-12-04T04:35:53.383Z,13.57
2022-12-04T04:38:20.184Z,13.50
2022-12-04T04:41:08.807Z,13.80
2022-12-04T04:44:08.419Z,13.73
2022-12-04T04:46:41.838Z,13.10
2022-12-04T04:49:12.054Z,13.68
2022-12-04T04:54:09.851Z,11.90
2022-12-04T04:56:44.982Z,12.70
2022-12-04T04:59:12.583Z,12.40
2022-12-04T05:01:41.733Z,12.25
2022-12-04T05:04:08.790Z,12.43
2022-12-04T05:06:35.538Z,12.60
2022-12-04T05:09:02.444Z,13.30
2022-12-04T05:11:29.194Z,11.98
2022-12-04T05:13:55.901Z,12.52
2022-12-04T05:16:22.781Z,12.68
2022-12-04T05:19:09.158Z,12.70
2022-12-04T05:21:35.889Z,12.52
2022-12-04T05:24:02.653Z,12.55
2022-12-04T05:26:29.378Z,12.55
2022-12-04T05:28:56.051Z,12.68
2022-12-04T05:31:22.905Z,12.43
2022-12-04T05:33:49.688Z,12.10
2022-12-04T05:36:16.461Z,12.73
2022-12-04T05:38:43.286Z,12.35
2022-12-04T05:41:09.983Z,12.05
2022-12-04T05:43:36.752Z,12.75
2022-12-04T05:46:08.550Z,12.48
2022-12-04T05:48:35.913Z,11.45
2022-12-04T05:51:10.319Z,12.52
2022-12-04T05:53:37.973Z,12.10
2022-12-04T05:56:05.909Z,12.25
2022-12-04T05:58:36.226Z,12.85
2022-12-04T06:01:09.829Z,12.85
2022-12-04T06:03:36.646Z,12.10
2022-12-04T06:06:04.577Z,12.63
2022-12-04T06:08:32.011Z,12.70
2022-12-04T06:10:58.747Z,13.00
2022-12-04T06:13:25.487Z,13.38
2022-12-04T06:15:52.166Z,13.23
2022-12-04T06:18:18.853Z,13.52
2022-12-04T06:20:45.598Z,12.60
2022-12-04T06:23:12.369Z,13.02
2022-12-04T06:25:39.059Z,12.63
2022-12-04T06:28:05.859Z,13.20
2022-12-04T06:30:34.246Z,13.60
2022-12-04T06:33:00.931Z,12.05
2022-12-04T06:35:27.623Z,13.40
2022-12-04T06:37:54.336Z,13.40
2022-12-04T06:40:21.040Z,13.23
2022-12-04T06:42:47.847Z,12.85
2022-12-04T06:45:15.247Z,13.18
2022-12-04T06:47:41.941Z,12.93
2022-12-04T06:50:09.068Z,13.35
2022-12-04T06:52:35.788Z,11.95
2022-12-04T06:55:02.483Z,13.30
2022-12-04T06:57:29.166Z,12.35
2022-12-04T06:59:56.001Z,12.68
2022-12-04T07:02:23.042Z,13.20
2022-12-04T07:04:49.798Z,13.32
2022-12-04T07:07:16.479Z,14.30
2022-12-04T07:09:44.204Z,13.35
2022-12-04T07:12:10.879Z,14.13
2022-12-04T07:14:37.602Z,13.63
2022-12-04T07:17:04.519Z,14.35
2022-12-04T07:19:31.282Z,15.25
2022-12-04T07:21:57.952Z,14.48
2022-12-04T07:24:24.635Z,14.23
2022-12-04T07:26:51.483Z,15.25
2022-12-04T07:29:18.176Z,15.23
2022-12-04T07:31:45.007Z,15.35
2022-12-04T07:34:11.776Z,14.48
2022-12-04T07:36:39.798Z,14.65
2022-12-04T07:39:06.531Z,14.57
2022-12-04T07:41:33.272Z,14.38
2022-12-04T07:43:59.976Z,13.68
2022-12-04T07:46:27.979Z,13.40
2022-12-04T07:48:59.161Z,12.77
2022-12-04T07:51:28.082Z,12.32
2022-12-04T07:54:02.085Z,12.93
2022-12-04T07:56:30.224Z,13.35
2022-12-04T07:58:56.949Z,13.18
2022-12-04T08:01:24.595Z,13.30
2022-12-04T08:03:55.444Z,13.73
2022-12-04T08:06:24.418Z,13.45
2022-12-04T08:08:52.016Z,13.98
2022-12-04T08:11:24.051Z,14.57
2022-12-04T08:14:01.810Z,14.70
2022-12-04T08:16:31.218Z,13.23
2022-12-04T08:18:58.268Z,12.68
2022-12-04T08:21:30.003Z,12.10
2022-12-04T08:23:58.021Z,12.60
2022-12-04T08:26:27.355Z,11.40
2022-12-04T08:28:55.522Z,11.93
2022-12-04T08:31:25.829Z,13.25
2022-12-04T08:33:54.881Z,13.40
2022-12-04T08:36:22.518Z,12.63
2022-12-04T08:38:49.737Z,13.15
2022-12-04T08:41:18.610Z,13.80
2022-12-04T08:43:45.489Z,13.45
2022-12-04T08:46:18.062Z,13.25
2022-12-04T08:48:45.666Z,13.05
2022-12-04T08:51:23.015Z,13.05
2022-12-04T08:53:56.824Z,12.77
2022-12-04T08:56:24.405Z,13.05
2022-12-04T08:58:51.228Z,13.32
2022-12-04T09:01:18.182Z,12.85
2022-12-04T09:03:45.035Z,13.43
2022-12-04T09:06:14.632Z,13.00
2022-12-04T09:08:43.065Z,14.63
2022-12-04T09:11:16.156Z,13.10
2022-12-04T09:13:44.398Z,14.50
2022-12-04T09:16:19.732Z,14.02
2022-12-04T09:18:47.448Z,14.73
2022-12-04T09:21:16.771Z,14.63
2022-12-04T09:23:43.978Z,14.57
2022-12-04T09:26:27.353Z,14.38
2022-12-04T09:28:55.981Z,14.55
2022-12-04T09:31:24.644Z,13.93
2022-12-04T09:33:52.150Z,12.63
2022-12-04T09:36:19.475Z,12.45
2022-12-04T09:38:51.214Z,10.98
2022-12-04T09:41:36.268Z,11.43
2022-12-04T09:44:20.059Z,12.10
2022-12-04T09:46:52.906Z,12.43
2022-12-04T09:49:43.246Z,11.45
2022-12-04T09:54:50.757Z,9.68
2022-12-04T09:57:28.698Z,11.35
2022-12-04T09:59:56.433Z,12.43
2022-12-04T10:02:39.780Z,11.52
2022-12-04T10:05:18.277Z,11.55
2022-12-04T10:08:09.428Z,11.88
2022-12-04T10:11:04.816Z,11.45
2022-12-04T10:13:54.533Z,10.90
2022-12-04T10:16:47.485Z,11.68
2022-12-04T10:19:29.034Z,11.38
2022-12-04T10:22:09.762Z,9.73
2022-12-04T10:24:56.059Z,10.63
2022-12-04T10:27:34.706Z,9.85
2022-12-04T10:30:21.868Z,11.68
2022-12-04T10:32:53.024Z,10.52
2022-12-04T10:35:24.974Z,11.82
2022-12-04T10:37:57.120Z,10.57
2022-12-04T10:40:37.926Z,12.13
2022-12-04T10:43:20.670Z,12.13
2022-12-04T10:45:47.446Z,10.85
2022-12-04T10:48:40.892Z,11.57
2022-12-04T10:51:17.155Z,12.50
2022-12-04T10:53:45.679Z,12.25
2022-12-04T10:56:22.109Z,13.27
2022-12-04T10:59:01.219Z,12.90
2022-12-04T11:01:33.690Z,13.13
2022-12-04T11:04:05.663Z,13.13
2022-12-04T11:06:32.902Z,13.35
2022-12-04T11:09:02.075Z,13.25
2022-12-04T11:11:33.877Z,14.07
2022-12-04T11:14:20.210Z,12.73
2022-12-04T11:16:50.113Z,12.63
2022-12-04T11:19:25.621Z,13.23
2022-12-04T11:21:59.165Z,12.75
2022-12-04T11:24:37.836Z,13.40
2022-12-04T11:27:07.403Z,13.27
2022-12-04T11:29:42.818Z,12.68
2022-12-04T11:32:45.807Z,13.88
2022-12-04T11:35:25.787Z,13.60
2022-12-04T11:38:06.134Z,13.25
2022-12-04T11:43:20.877Z,13.48
2022-12-04T11:46:21.303Z,13.20
2022-12-04T11:48:48.132Z,13.82
2022-12-04T11:51:32.953Z,14.23
2022-12-04T11:54:23.346Z,13.40
2022-12-04T11:57:22.575Z,14.65
2022-12-04T12:00:04.390Z,13.50
2022-12-04T12:02:43.231Z,13.77
2022-12-04T12:05:13.124Z,14.02
2022-12-04T12:07:55.275Z,13.90
2022-12-04T12:13:40.367Z,13.85
2022-12-04T12:16:26.294Z,14.07
2022-12-04T12:19:14.706Z,13.18
2022-12-04T12:22:14.194Z,14.88
2022-12-04T12:25:17.203Z,14.40
2022-12-04T12:28:14.906Z,13.50
2022-12-04T12:31:14.879Z,14.60
2022-12-04T12:34:17.399Z,13.43
2022-12-04T12:36:49.952Z,14.10
2022-12-04T12:39:40.259Z,14.38
2022-12-04T12:45:22.966Z,13.88
2022-12-04T12:47:52.534Z,13.73
2022-12-04T12:50:28.384Z,13.63
2022-12-04T12:53:03.491Z,14.20
2022-12-04T12:55:36.565Z,13.77
2022-12-04T12:58:17.569Z,14.18
2022-12-04T13:00:51.170Z,13.98
2022-12-04T13:03:27.079Z,14.93
2022-12-04T13:05:59.703Z,14.93
2022-12-04T13:08:30.767Z,14.35
2022-12-04T13:11:21.713Z,13.75
2022-12-04T13:14:06.739Z,15.02
2022-12-04T13:16:39.318Z,15.63
2022-12-04T13:19:23.160Z,13.88
2022-12-04T13:22:16.515Z,13.48
2022-12-04T13:24:53.635Z,13.38
2022-12-04T13:27:50.704Z,13.43
2022-12-04T13:30:28.067Z,14.23
2022-12-04T13:33:16.607Z,13.52
2022-12-04T13:36:10.520Z,13.27
2022-12-04T13:38:51.568Z,12.70
2022-12-04T13:41:24.077Z,13.75
2022-12-04T13:43:52.778Z,13.77
2022-12-04T13:46:37.379Z,13.32
2022-12-04T13:49:33.037Z,14.15
2022-12-04T13:52:02.543Z,12.60
2022-12-04T13:54:35.226Z,13.55
2022-12-04T13:57:17.201Z,13.45
2022-12-04T13:59:44.541Z,13.00
2022-12-04T14:02:28.585Z,14.10
2022-12-04T14:05:02.506Z,12.70
2022-12-04T14:07:37.075Z,14.20
2022-12-04T14:10:14.937Z,13.90
2022-12-04T14:12:48.970Z,13.98
2022-12-04T14:15:24.390Z,14.10
2022-12-04T14:18:05.220Z,14.23
2022-12-04T14:20:34.465Z,14.88
2022-12-04T14:23:33.792Z,14.32
2022-12-04T14:26:03.097Z,14.52
2022-12-04T14:28:38.734Z,14.55
2022-12-04T14:31:08.561Z,14.45
2022-12-04T14:33:42.892Z,15.30
2022-12-04T14:36:17.994Z,14.70
2022-12-04T14:38:48.211Z,14.30
2022-12-04T14:43:50.314Z,14.75
2022-12-04T14:46:47.534Z,15.85
2022-12-04T14:49:21.791Z,15.95
2022-12-04T14:52:00.981Z,15.43
2022-12-04T14:55:12.170Z,15.70
2022-12-04T14:57:59.531Z,17.05
2022-12-04T15:00:26.551Z,17.98
2022-12-04T15:02:57.202Z,17.90
2022-12-04T15:05:31.359Z,19.88
2022-12-04T15:08:01.980Z,20.42
2022-12-04T15:10:49.869Z,19.63
2022-12-04T15:13:31.492Z,19.85
2022-12-04T15:15:58.449Z,19.45
2022-12-04T15:18:25.221Z,19.63
2022-12-04T15:20:51.874Z,21.15
2022-12-04T15:23:29.599Z,19.33
2022-12-04T15:25:58.398Z,19.88
2022-12-04T15:28:33.941Z,18.92
2022-12-04T15:31:05.704Z,18.92
2022-12-04T15:33:38.080Z,20.27
2022-12-04T15:36:37.570Z,19.77
2022-12-04T15:39:05.441Z,19.13
2022-12-04T15:41:33.525Z,20.45
2022-12-04T15:44:01.042Z,18.95
2022-12-04T15:46:37.960Z,19.55
2022-12-04T15:49:26.153Z,17.40
2022-12-04T15:52:15.578Z,18.33
2022-12-04T15:54:57.718Z,17.75
2022-12-04T15:57:34.487Z,17.33
2022-12-04T16:00:05.231Z,17.02
2022-12-04T16:02:41.830Z,18.00
2022-12-04T16:05:21.530Z,17.35
2022-12-04T16:07:53.894Z,15.13
2022-12-04T16:10:30.462Z,15.98
2022-12-04T16:13:00.778Z,15.63
2022-12-04T16:15:39.926Z,14.60
2022-12-04T16:18:11.170Z,14.95
2022-12-04T16:20:38.883Z,15.70
2022-12-04T16:23:05.899Z,15.30
2022-12-04T16:25:32.790Z,14.75
2022-12-04T16:28:00.858Z,15.15
2022-12-04T16:30:29.769Z,14.32
2022-12-04T16:32:56.436Z,15.48
2022-12-04T16:35:23.164Z,15.40
2022-12-04T16:37:49.945Z,15.00
2022-12-04T16:40:17.153Z,14.95
2022-12-04T16:42:44.624Z,13.23
2022-12-04T16:45:28.489Z,13.57
2022-12-04T16:47:57.925Z,13.15
2022-12-04T16:50:26.146Z,12.50
2022-12-04T16:52:53.239Z,12.48
2022-12-04T16:55:21.793Z,12.23
2022-12-04T16:57:48.507Z,11.90
2022-12-04T17:00:17.141Z,12.65
2022-12-04T17:02:45.122Z,13.32
2022-12-04T17:05:27.059Z,13.10
2022-12-04T17:07:55.107Z,12.95
2022-12-04T17:10:24.257Z,12.48
2022-12-04T17:12:55.182Z,11.60
2022-12-04T17:15:22.261Z,11.95
2022-12-04T17:17:49.056Z,12.90
2022-12-04T17:20:18.225Z,12.20
2022-12-04T17:22:45.105Z,12.55
2022-12-04T17:25:12.563Z,12.95
2022-12-04T17:27:39.414Z,12.85
2022-12-04T17:30:07.627Z,11.48
2022-12-04T17:32:34.971Z,12.68
2022-12-04T17:35:02.864Z,12.82
2022-12-04T17:37:30.911Z,12.95
2022-12-04T17:39:58.414Z,13.02
2022-12-04T17:42:25.239Z,12.95
2022-12-04T17:44:51.998Z,11.98
2022-12-04T17:47:18.974Z,12.77
2022-12-04T17:49:45.664Z,13.43
2022-12-04T17:52:12.409Z,13.00
2022-12-04T17:54:39.096Z,13.38
2022-12-04T17:57:05.871Z,13.13
2022-12-04T17:59:32.627Z,14.02
2022-12-04T18:01:59.354Z,13.10
2022-12-04T18:04:26.134Z,13.23
2022-12-04T18:06:53.095Z,14.05
2022-12-04T18:09:19.786Z,13.38
2022-12-04T18:11:47.954Z,13.23
2022-12-04T18:14:17.339Z,13.13
2022-12-04T18:16:53.819Z,13.63
2022-12-04T18:19:23.079Z,12.77
2022-12-04T18:21:50.471Z,13.27
2022-12-04T18:24:17.583Z,12.90
2022-12-04T18:26:48.147Z,11.95
2022-12-04T18:29:18.230Z,11.85
2022-12-04T18:31:45.881Z,11.45
2022-12-04T18:34:14.681Z,11.20
2022-12-04T18:36:42.129Z,11.68
2022-12-04T18:39:13.223Z,11.75
2022-12-04T18:41:40.427Z,12.88
2022-12-04T18:44:07.110Z,12.80
2022-12-04T18:46:34.041Z,12.50
2022-12-04T18:49:01.400Z,12.95
2022-12-04T18:51:34.136Z,13.25
2022-12-04T18:54:03.698Z,13.07
2022-12-04T18:56:31.400Z,12.90
2022-12-04T18:59:04.091Z,13.07
2022-12-04T19:01:31.514Z,13.88
2022-12-04T19:04:03.704Z,12.50
2022-12-04T19:06:33.003Z,13.98
2022-12-04T19:09:01.416Z,13.63
2022-12-04T19:11:28.614Z,14.50
2022-12-04T19:13:55.322Z,15.75
2022-12-04T19:16:22.103Z,14.77
2022-12-04T19:18:48.961Z,14.50
2022-12-04T19:21:16.958Z,13.65
2022-12-04T19:23:50.155Z,12.38
2022-12-04T19:26:17.978Z,13.50
2022-12-04T19:28:44.866Z,12.65
2022-12-04T19:31:16.787Z,13.75
2022-12-04T19:33:43.858Z,12.60
2022-12-04T19:36:12.022Z,13.50
2022-12-04T19:38:38.734Z,12.98
2022-12-04T19:41:17.553Z,13.65
2022-12-04T19:43:46.839Z,13.10
2022-12-04T19:46:16.300Z,13.38
2022-12-04T19:48:45.150Z,13.40
2022-12-04T19:51:14.960Z,12.60
2022-12-04T19:53:42.589Z,12.60
2022-12-04T19:56:15.047Z,12.57
2022-12-04T19:58:42.545Z,12.07
2022-12-04T20:01:13.196Z,13.05
2022-12-04T20:06:18.173Z,13.57
2022-12-04T20:11:15.699Z,12.85
2022-12-04T20:13:43.134Z,13.27
2022-12-04T20:16:12.129Z,12.48
2022-12-04T20:18:39.861Z,12.32
2022-12-04T20:21:11.252Z,11.40
2022-12-04T20:23:38.438Z,12.20
2022-12-04T20:26:07.621Z,11.68
2022-12-04T20:28:34.603Z,11.55
2022-12-04T20:31:01.584Z,11.50
2022-12-04T20:33:28.328Z,11.55
2022-12-04T20:35:55.506Z,11.80
2022-12-04T20:38:22.268Z,11.40
2022-12-04T20:40:49.015Z,11.57
2022-12-04T20:43:15.724Z,10.50
2022-12-04T20:45:42.460Z,10.85
2022-12-04T20:48:09.273Z,10.00
2022-12-04T20:50:36.126Z,10.50
2022-12-04T20:53:02.848Z,10.95
2022-12-04T20:55:29.561Z,10.45
2022-12-04T20:57:57.505Z,10.43
2022-12-04T21:00:24.224Z,10.90
2022-12-04T21:02:51.011Z,10.70
2022-12-04T21:05:17.807Z,10.30
2022-12-04T21:07:44.714Z,10.35
2022-12-04T21:10:11.611Z,11.10
2022-12-04T21:12:56.888Z,11.07
2022-12-04T21:15:42.514Z,10.52
2022-12-04T21:18:09.301Z,11.13
2022-12-04T21:20:35.989Z,10.70
2022-12-04T21:23:02.683Z,10.65
2022-12-04T21:25:29.426Z,10.85
2022-12-04T21:27:56.138Z,10.57
2022-12-04T21:30:22.884Z,11.60
2022-12-04T21:32:49.574Z,11.48
2022-12-04T21:35:16.308Z,11.05
2022-12-04T21:37:43.140Z,11.30
2022-12-04T21:40:10.786Z,10.40
2022-12-04T21:42:38.766Z,10.48
2022-12-04T21:45:07.507Z,11.88
2022-12-04T21:47:36.302Z,10.63
2022-12-04T21:50:04.561Z,10.57
2022-12-04T21:52:31.447Z,10.30
2022-12-04T21:54:58.196Z,11.02
2022-12-04T21:57:25.341Z,10.23
2022-12-04T21:59:52.408Z,10.02
2022-12-04T22:02:19.339Z,10.68
2022-12-04T22:04:46.188Z,11.40
2022-12-04T22:07:13.250Z,10.43
2022-12-04T22:09:40.206Z,10.93
2022-12-04T22:12:26.392Z,10.57
2022-12-04T22:14:53.944Z,10.20
2022-12-04T22:17:20.634Z,11.32
2022-12-04T22:19:47.354Z,10.77
2022-12-04T22:22:14.059Z,9.98
2022-12-04T22:24:41.674Z,10.40
2022-12-04T22:27:14.739Z,10.32
2022-12-04T22:29:50.134Z,11.05
2022-12-04T22:32:17.323Z,10.50
2022-12-04T22:34:44.174Z,11.25
2022-12-04T22:37:10.952Z,11.02
2022-12-04T22:39:37.696Z,11.75
2022-12-04T22:42:04.491Z,10.90
2022-12-04T22:44:31.279Z,10.90
2022-12-04T22:46:58.126Z,10.77
2022-12-04T22:49:24.917Z,10.82
2022-12-04T22:51:51.619Z,10.98
2022-12-04T22:54:18.295Z,11.15
2022-12-04T22:56:45.003Z,11.02
2022-12-04T22:59:11.791Z,10.65
2022-12-04T23:01:38.486Z,10.88
2022-12-04T23:04:05.514Z,11.10
2022-12-04T23:06:33.707Z,10.75
2022-12-04T23:09:05.040Z,11.40
2022-12-04T23:11:31.910Z,11.00
2022-12-04T23:14:01.191Z,10.85
2022-12-04T23:16:30.097Z,11.15
2022-12-04T23:18:57.767Z,11.35
2022-12-04T23:21:25.217Z,10.73
2022-12-04T23:23:53.870Z,11.63
2022-12-04T23:26:23.818Z,10.25
2022-12-04T23:28:50.658Z,11.30
2022-12-04T23:31:17.808Z,10.70
2022-12-04T23:33:45.088Z,10.63
2022-12-04T23:36:13.323Z,11.65
2022-12-04T23:38:41.581Z,10.85
2022-12-04T23:41:18.299Z,11.00
2022-12-04T23:43:45.663Z,10.77
2022-12-04T23:46:14.134Z,10.43
2022-12-04T23:48:42.361Z,10.65
2022-12-04T23:51:10.170Z,9.63
2022-12-04T23:53:37.289Z,10.15
2022-12-04T23:56:09.830Z,10.55
2022-12-04T23:58:37.214Z,9.90
